createdAt,value
2023-02-02T00:01:24.233Z,15.60
2023-02-02T00:03:51.818Z,22.53
2023-02-02T00:06:23.525Z,24.07
2023-02-02T00:08:50.336Z,13.23
2023-02-02T00:11:18.476Z,16.90
2023-02-02T00:13:45.741Z,16.73
2023-02-02T00:16:27.534Z,23.13
2023-02-02T00:18:56.447Z,12.88
2023-02-02T00:21:23.859Z,20.27
2023-02-02T00:23:51.316Z,14.70
2023-02-02T00:26:18.830Z,13.67
2023-02-02T00:28:45.932Z,17.60
2023-02-02T00:31:12.801Z,16.20
2023-02-02T00:33:39.682Z,20.30
2023-02-02T00:36:08.184Z,15.80
2023-02-02T00:38:35.052Z,13.77
2023-02-02T00:41:01.931Z,17.17
2023-02-02T00:43:28.662Z,13.23
2023-02-02T00:45:55.860Z,13.20
2023-02-02T00:48:22.882Z,17.73
2023-02-02T00:50:49.551Z,20.80
2023-02-02T00:53:16.258Z,14.17
2023-02-02T00:55:43.006Z,15.90
2023-02-02T00:58:09.768Z,19.90
2023-02-02T01:00:37.571Z,18.75
2023-02-02T01:03:04.880Z,14.27
2023-02-02T01:05:32.606Z,21.43
2023-02-02T01:07:59.683Z,20.60
2023-02-02T01:10:26.593Z,14.37
2023-02-02T01:12:53.562Z,15.63
2023-02-02T01:15:20.267Z,16.98
2023-02-02T01:17:47.133Z,16.67
2023-02-02T01:20:19.648Z,18.92
2023-02-02T01:22:47.265Z,16.17
2023-02-02T01:25:14.297Z,12.93
2023-02-02T01:27:42.403Z,12.57
2023-02-02T01:30:10.633Z,11.33
2023-02-02T01:32:37.382Z,13.20
2023-02-02T01:35:04.319Z,12.17
2023-02-02T01:37:31.109Z,17.33
2023-02-02T01:39:57.760Z,16.47
2023-02-02T01:42:24.606Z,20.17
2023-02-02T01:45:15.622Z,14.03
2023-02-02T01:47:47.808Z,17.90
2023-02-02T01:50:18.655Z,15.33
2023-02-02T01:52:50.008Z,19.90
2023-02-02T01:55:20.217Z,18.50
2023-02-02T01:57:52.644Z,17.23
2023-02-02T02:00:25.373Z,13.03
2023-02-02T02:02:56.725Z,20.67
2023-02-02T02:05:31.352Z,12.50
2023-02-02T02:08:18.153Z,17.73
2023-02-02T02:10:45.056Z,15.23
2023-02-02T02:13:12.873Z,15.33
2023-02-02T02:16:20.606Z,17.90
2023-02-02T02:19:09.157Z,17.43
2023-02-02T02:21:58.594Z,11.70
2023-02-02T02:24:58.359Z,18.97
2023-02-02T02:27:43.000Z,12.27
2023-02-02T02:30:45.360Z,15.67
2023-02-02T02:33:46.274Z,15.63
2023-02-02T02:36:25.314Z,17.50
2023-02-02T02:39:03.423Z,22.00
2023-02-02T02:41:34.513Z,21.20
2023-02-02T02:44:08.210Z,18.07
2023-02-02T02:46:36.717Z,21.17
2023-02-02T02:49:03.826Z,15.10
2023-02-02T02:51:49.041Z,20.47
2023-02-02T02:54:38.178Z,20.00
2023-02-02T02:57:26.651Z,17.43
2023-02-02T03:00:09.418Z,19.83
2023-02-02T03:02:51.742Z,14.27
2023-02-02T03:05:38.648Z,16.60
2023-02-02T03:08:37.968Z,15.47
2023-02-02T03:11:07.644Z,12.83
2023-02-02T03:13:34.789Z,14.13
2023-02-02T03:16:01.740Z,14.07
2023-02-02T03:18:31.060Z,11.33
2023-02-02T03:20:58.001Z,22.38
2023-02-02T03:23:25.789Z,23.27
2023-02-02T03:25:52.713Z,15.03
2023-02-02T03:28:20.978Z,14.40
2023-02-02T03:30:48.544Z,18.23
2023-02-02T03:33:16.366Z,15.52
2023-02-02T03:35:43.136Z,11.65
2023-02-02T03:38:10.333Z,14.97
2023-02-02T03:40:37.060Z,16.53
2023-02-02T03:43:03.821Z,17.83
2023-02-02T03:45:32.127Z,27.35
2023-02-02T03:47:58.936Z,18.90
2023-02-02T03:50:25.630Z,17.03
2023-02-02T03:52:53.535Z,27.55
2023-02-02T03:55:20.319Z,15.77
2023-02-02T03:57:47.065Z,20.33
2023-02-02T04:00:14.146Z,30.10
2023-02-02T04:02:41.798Z,29.33
2023-02-02T04:05:09.018Z,19.37
2023-02-02T04:07:35.772Z,14.73
2023-02-02T04:10:03.415Z,13.85
2023-02-02T04:12:30.112Z,24.23
2023-02-02T04:14:56.856Z,20.40
2023-02-02T04:17:23.639Z,22.30
2023-02-02T04:19:53.132Z,19.23
2023-02-02T04:22:19.875Z,17.37
2023-02-02T04:24:46.540Z,13.50
2023-02-02T04:27:13.227Z,23.20
2023-02-02T04:29:39.960Z,16.53
2023-02-02T04:32:06.787Z,14.80
2023-02-02T04:34:33.517Z,15.77
2023-02-02T04:37:00.277Z,17.33
2023-02-02T04:39:27.160Z,18.90
2023-02-02T04:41:53.911Z,25.63
2023-02-02T04:44:20.626Z,20.20
2023-02-02T04:46:47.435Z,16.93
2023-02-02T04:49:14.307Z,12.03
2023-02-02T04:51:41.541Z,17.97
2023-02-02T04:54:08.630Z,19.60
2023-02-02T04:56:35.857Z,20.90
2023-02-02T04:59:02.632Z,27.83
2023-02-02T05:01:30.788Z,28.40
2023-02-02T05:03:57.958Z,21.50
2023-02-02T05:06:24.703Z,25.40
2023-02-02T05:08:51.735Z,21.80
2023-02-02T05:11:20.859Z,22.13
2023-02-02T05:13:50.175Z,19.93
2023-02-02T05:16:17.194Z,20.00
2023-02-02T05:18:48.179Z,17.73
2023-02-02T05:21:14.979Z,32.20
2023-02-02T05:23:41.730Z,18.80
2023-02-02T05:26:19.479Z,23.90
2023-02-02T05:28:46.410Z,27.07
2023-02-02T05:31:13.326Z,26.83
2023-02-02T05:33:40.203Z,18.60
2023-02-02T05:36:07.677Z,23.87
2023-02-02T05:38:34.797Z,24.37
2023-02-02T05:41:01.959Z,24.70
2023-02-02T05:43:30.294Z,23.67
2023-02-02T05:45:57.356Z,20.70
2023-02-02T05:48:24.082Z,16.10
2023-02-02T05:51:03.283Z,17.80
2023-02-02T05:53:31.832Z,19.20
2023-02-02T05:55:59.171Z,21.23
2023-02-02T05:58:26.683Z,18.93
2023-02-02T06:00:56.273Z,34.13
2023-02-02T06:03:23.742Z,24.33
2023-02-02T06:05:50.542Z,22.63
2023-02-02T06:08:17.339Z,16.23
2023-02-02T06:10:44.412Z,27.53
2023-02-02T06:13:11.187Z,12.77
2023-02-02T06:15:38.226Z,24.20
2023-02-02T06:18:06.933Z,15.07
2023-02-02T06:20:33.923Z,16.35
2023-02-02T06:23:00.689Z,21.43
2023-02-02T06:25:27.850Z,17.30
2023-02-02T06:27:59.101Z,26.43
2023-02-02T06:30:27.166Z,16.53
2023-02-02T06:32:53.961Z,15.90
2023-02-02T06:35:20.872Z,13.80
2023-02-02T06:37:47.579Z,18.48
2023-02-02T06:40:14.475Z,14.30
2023-02-02T06:42:41.190Z,15.88
2023-02-02T06:45:08.446Z,18.10
2023-02-02T06:47:35.257Z,22.70
2023-02-02T06:50:02.075Z,14.90
2023-02-02T06:52:28.937Z,15.97
2023-02-02T06:54:55.684Z,21.20
2023-02-02T06:57:22.536Z,20.43
2023-02-02T06:59:50.645Z,21.40
2023-02-02T07:02:17.370Z,18.17
2023-02-02T07:04:44.082Z,17.60
2023-02-02T07:07:10.779Z,21.42
2023-02-02T07:09:37.584Z,19.90
2023-02-02T07:12:04.375Z,17.43
2023-02-02T07:14:31.112Z,22.67
2023-02-02T07:16:57.835Z,18.30
2023-02-02T07:19:24.605Z,15.60
2023-02-02T07:21:51.398Z,21.50
2023-02-02T07:24:18.180Z,13.57
2023-02-02T07:26:44.986Z,17.47
2023-02-02T07:29:16.375Z,20.77
2023-02-02T07:31:43.261Z,17.33
2023-02-02T07:34:10.077Z,11.73
2023-02-02T07:36:37.458Z,17.13
2023-02-02T07:39:05.382Z,26.00
2023-02-02T07:41:34.639Z,20.48
2023-02-02T07:44:01.827Z,18.93
2023-02-02T07:46:28.600Z,15.97
2023-02-02T07:48:56.469Z,13.90
2023-02-02T07:51:25.015Z,22.17
2023-02-02T07:53:54.660Z,17.63
2023-02-02T07:56:24.049Z,19.30
2023-02-02T07:58:55.615Z,20.33
2023-02-02T08:01:26.255Z,21.07
2023-02-02T08:03:54.512Z,13.10
2023-02-02T08:06:24.667Z,12.87
2023-02-02T08:08:51.988Z,20.50
2023-02-02T08:11:21.810Z,13.33
2023-02-02T08:13:50.547Z,16.70
2023-02-02T08:16:17.979Z,18.33
2023-02-02T08:18:44.926Z,19.40
2023-02-02T08:21:11.865Z,17.20
2023-02-02T08:23:41.067Z,23.48
2023-02-02T08:26:15.216Z,16.80
2023-02-02T08:28:43.475Z,11.97
2023-02-02T08:31:12.901Z,17.10
2023-02-02T08:33:39.927Z,21.37
2023-02-02T08:36:14.243Z,13.70
2023-02-02T08:38:41.567Z,16.23
2023-02-02T08:41:10.794Z,13.30
2023-02-02T08:43:37.823Z,19.23
2023-02-02T08:46:05.800Z,20.27
2023-02-02T08:48:33.905Z,16.90
2023-02-02T08:51:01.043Z,16.57
2023-02-02T08:53:28.662Z,18.37
2023-02-02T08:56:12.908Z,17.10
2023-02-02T08:58:40.317Z,41.57
2023-02-02T09:01:09.329Z,16.17
2023-02-02T09:03:36.229Z,25.77
2023-02-02T09:06:07.971Z,18.57
2023-02-02T09:08:35.014Z,17.77
2023-02-02T09:11:07.146Z,12.90
2023-02-02T09:13:34.890Z,16.30
2023-02-02T09:16:03.322Z,21.70
2023-02-02T09:18:30.061Z,19.47
2023-02-02T09:21:01.151Z,19.17
2023-02-02T09:23:34.360Z,15.70
2023-02-02T09:26:11.537Z,21.70
2023-02-02T09:28:43.497Z,19.73
2023-02-02T09:31:10.681Z,13.30
2023-02-02T09:33:38.086Z,17.30
2023-02-02T09:36:12.175Z,16.20
2023-02-02T09:38:39.915Z,17.30
2023-02-02T09:41:28.962Z,11.90
2023-02-02T09:44:33.404Z,17.57
2023-02-02T09:47:00.122Z,21.57
2023-02-02T09:49:55.170Z,20.23
2023-02-02T09:52:36.134Z,19.57
2023-02-02T09:55:37.152Z,15.83
2023-02-02T09:58:12.945Z,20.73
2023-02-02T10:00:48.471Z,15.60
2023-02-02T10:03:27.224Z,14.40
2023-02-02T10:06:13.247Z,12.37
2023-02-02T10:08:45.774Z,18.13
2023-02-02T10:11:45.428Z,12.73
2023-02-02T10:14:19.721Z,14.60
2023-02-02T10:16:49.197Z,16.87
2023-02-02T10:19:16.261Z,18.73
2023-02-02T10:21:59.805Z,7.97
2023-02-02T10:24:29.744Z,10.83
2023-02-02T10:27:04.078Z,10.73
2023-02-02T10:29:59.581Z,15.87
2023-02-02T10:32:38.560Z,11.93
2023-02-02T10:35:42.818Z,11.97
2023-02-02T10:38:31.288Z,10.03
2023-02-02T10:41:25.043Z,12.33
2023-02-02T10:44:10.602Z,11.70
2023-02-02T10:46:45.453Z,12.18
2023-02-02T10:49:37.859Z,14.52
2023-02-02T10:52:13.455Z,14.03
2023-02-02T10:55:07.181Z,9.17
2023-02-02T10:57:39.804Z,17.77
2023-02-02T11:00:22.610Z,10.93
2023-02-02T11:02:51.381Z,19.10
2023-02-02T11:05:43.000Z,14.05
2023-02-02T11:08:25.094Z,18.27
2023-02-02T11:10:54.934Z,16.57
2023-02-02T11:13:30.430Z,12.33
2023-02-02T11:16:15.605Z,10.57
2023-02-02T11:18:45.874Z,13.17
2023-02-02T11:21:32.550Z,16.27
2023-02-02T11:24:19.319Z,15.13
2023-02-02T11:26:51.688Z,13.80
2023-02-02T11:29:29.496Z,11.43
2023-02-02T11:31:56.822Z,13.57
2023-02-02T11:34:26.735Z,15.10
2023-02-02T11:37:20.854Z,20.20
2023-02-02T11:39:47.681Z,11.83
2023-02-02T11:42:20.634Z,7.70
2023-02-02T11:44:52.892Z,13.80
2023-02-02T11:47:26.984Z,19.80
2023-02-02T11:49:55.902Z,7.40
2023-02-02T11:52:27.950Z,11.82
2023-02-02T11:54:59.384Z,13.10
2023-02-02T11:57:28.730Z,13.33
2023-02-02T12:00:18.886Z,12.23
2023-02-02T12:02:47.848Z,15.53
2023-02-02T12:05:20.609Z,13.70
2023-02-02T12:07:48.382Z,12.03
2023-02-02T12:10:53.248Z,15.67
2023-02-02T12:14:00.213Z,18.97
2023-02-02T12:16:53.824Z,8.07
2023-02-02T12:19:40.464Z,12.90
2023-02-02T12:22:28.510Z,9.37
2023-02-02T12:25:22.045Z,12.93
2023-02-02T12:27:56.086Z,13.00
2023-02-02T12:30:46.731Z,8.20
2023-02-02T12:33:19.345Z,14.53
2023-02-02T12:35:55.379Z,11.13
2023-02-02T12:38:46.870Z,6.87
2023-02-02T12:41:32.404Z,7.50
2023-02-02T12:44:36.781Z,14.00
2023-02-02T12:47:35.422Z,8.87
2023-02-02T12:50:23.722Z,12.40
2023-02-02T12:53:07.101Z,13.03
2023-02-02T12:56:15.084Z,13.13
2023-02-02T12:59:18.574Z,13.57
2023-02-02T13:02:00.587Z,9.83
2023-02-02T13:05:08.441Z,12.70
2023-02-02T13:07:43.848Z,7.38
2023-02-02T13:10:31.874Z,7.37
2023-02-02T13:13:16.917Z,15.83
2023-02-02T13:15:52.845Z,8.10
2023-02-02T13:18:26.556Z,16.75
2023-02-02T13:21:01.708Z,11.33
2023-02-02T13:23:36.401Z,15.60
2023-02-02T13:26:19.827Z,14.83
2023-02-02T13:28:52.377Z,6.88
2023-02-02T13:31:24.757Z,9.57
2023-02-02T13:34:32.642Z,6.85
2023-02-02T13:37:25.276Z,21.30
2023-02-02T13:40:47.159Z,13.65
2023-02-02T13:43:41.494Z,11.38
2023-02-02T13:46:23.740Z,6.03
2023-02-02T13:49:19.659Z,5.87
2023-02-02T13:52:27.698Z,11.23
2023-02-02T13:55:34.249Z,10.63
2023-02-02T13:58:34.811Z,6.63
2023-02-02T14:01:09.366Z,9.05
2023-02-02T14:03:40.836Z,7.03
2023-02-02T14:06:24.176Z,7.20
2023-02-02T14:08:50.843Z,14.10
2023-02-02T14:11:29.401Z,12.03
2023-02-02T14:14:24.531Z,6.17
2023-02-02T14:16:52.431Z,12.77
2023-02-02T14:19:31.333Z,7.22
2023-02-02T14:22:01.624Z,8.50
2023-02-02T14:24:37.152Z,14.47
2023-02-02T14:27:10.155Z,8.53
2023-02-02T14:29:47.009Z,8.50
2023-02-02T14:32:29.155Z,10.93
2023-02-02T14:35:08.894Z,6.50
2023-02-02T14:38:13.641Z,12.80
2023-02-02T14:41:06.696Z,7.17
2023-02-02T14:43:49.768Z,9.03
2023-02-02T14:46:24.683Z,7.33
2023-02-02T14:48:54.511Z,8.47
2023-02-02T14:51:27.690Z,5.83
2023-02-02T14:53:58.697Z,18.93
2023-02-02T14:56:49.856Z,8.10
2023-02-02T14:59:22.705Z,5.57
2023-02-02T15:02:25.803Z,7.85
2023-02-02T15:04:53.331Z,5.77
2023-02-02T15:07:23.205Z,5.20
2023-02-02T15:09:51.881Z,7.27
2023-02-02T15:12:31.219Z,4.10
2023-02-02T15:15:28.003Z,5.70
2023-02-02T15:18:25.432Z,9.60
2023-02-02T15:20:56.174Z,8.90
2023-02-02T15:23:44.760Z,4.70
2023-02-02T15:26:28.181Z,10.53
2023-02-02T15:29:00.747Z,7.43
2023-02-02T15:31:40.397Z,5.30
2023-02-02T15:34:26.030Z,13.38
2023-02-02T15:37:03.643Z,8.30
2023-02-02T15:39:32.195Z,5.20
2023-02-02T15:42:20.813Z,5.47
2023-02-02T15:44:47.661Z,7.67
2023-02-02T15:47:24.443Z,8.30
2023-02-02T15:49:52.533Z,7.20
2023-02-02T15:52:25.306Z,14.53
2023-02-02T15:54:55.148Z,6.90
2023-02-02T15:57:34.908Z,6.10
2023-02-02T16:00:22.440Z,5.73
2023-02-02T16:02:54.653Z,8.40
2023-02-02T16:05:36.102Z,7.40
2023-02-02T16:08:08.139Z,7.33
2023-02-02T16:10:35.747Z,9.07
2023-02-02T16:13:02.939Z,6.10
2023-02-02T16:15:32.096Z,12.33
2023-02-02T16:17:59.511Z,6.83
2023-02-02T16:20:28.143Z,10.40
2023-02-02T16:23:01.936Z,10.55
2023-02-02T16:25:33.424Z,13.13
2023-02-02T16:28:01.151Z,8.47
2023-02-02T16:30:35.778Z,4.43
2023-02-02T16:33:27.878Z,10.53
2023-02-02T16:35:57.720Z,9.60
2023-02-02T16:38:24.692Z,5.00
2023-02-02T16:41:09.563Z,11.10
2023-02-02T16:43:38.304Z,8.87
2023-02-02T16:46:10.889Z,12.13
2023-02-02T16:48:41.023Z,13.20
2023-02-02T16:51:07.857Z,13.40
2023-02-02T16:53:35.593Z,9.03
2023-02-02T16:56:04.632Z,3.40
2023-02-02T16:58:43.883Z,3.25
2023-02-02T17:01:15.796Z,8.77
2023-02-02T17:03:51.742Z,6.40
2023-02-02T17:06:41.824Z,6.87
2023-02-02T17:09:17.250Z,10.53
2023-02-02T17:11:59.461Z,8.90
2023-02-02T17:14:35.586Z,8.97
2023-02-02T17:17:05.174Z,5.70
2023-02-02T17:19:32.380Z,9.63
2023-02-02T17:22:02.150Z,9.20
2023-02-02T17:24:29.871Z,4.60
2023-02-02T17:26:56.690Z,5.40
2023-02-02T17:29:23.627Z,7.00
2023-02-02T17:31:52.054Z,8.10
2023-02-02T17:34:19.315Z,6.33
2023-02-02T17:36:46.132Z,5.33
2023-02-02T17:39:12.905Z,3.67
2023-02-02T17:41:40.162Z,5.47
2023-02-02T17:44:07.225Z,9.97
2023-02-02T17:46:35.129Z,4.40
2023-02-02T17:49:01.980Z,4.93
2023-02-02T17:51:30.396Z,4.23
2023-02-02T17:54:00.363Z,6.88
2023-02-02T17:56:27.825Z,9.02
2023-02-02T17:58:54.575Z,7.17
2023-02-02T18:01:21.580Z,7.00
2023-02-02T18:03:48.611Z,14.77
2023-02-02T18:06:15.315Z,15.07
2023-02-02T18:08:42.161Z,7.53
2023-02-02T18:11:13.268Z,12.47
2023-02-02T18:13:42.744Z,7.30
2023-02-02T18:16:11.057Z,5.23
2023-02-02T18:18:38.642Z,9.03
2023-02-02T18:21:14.165Z,6.37
2023-02-02T18:23:41.074Z,7.67
2023-02-02T18:26:13.796Z,7.30
2023-02-02T18:28:41.488Z,15.93
2023-02-02T18:31:10.583Z,8.43
2023-02-02T18:33:40.103Z,14.10
2023-02-02T18:36:10.688Z,6.20
2023-02-02T18:38:38.754Z,7.47
2023-02-02T18:41:05.978Z,6.13
2023-02-02T18:43:33.164Z,13.80
2023-02-02T18:46:02.397Z,14.70
2023-02-02T18:48:29.580Z,11.40
2023-02-02T18:50:56.408Z,11.77
2023-02-02T18:53:23.574Z,15.30
2023-02-02T18:55:50.363Z,10.10
2023-02-02T18:58:17.257Z,9.93
2023-02-02T19:00:45.387Z,8.97
2023-02-02T19:03:13.182Z,20.17
2023-02-02T19:05:58.498Z,17.00
2023-02-02T19:08:25.292Z,11.03
2023-02-02T19:11:00.421Z,8.63
2023-02-02T19:13:28.883Z,11.57
2023-02-02T19:15:59.208Z,13.23
2023-02-02T19:18:26.012Z,11.53
2023-02-02T19:20:53.080Z,8.97
2023-02-02T19:23:25.270Z,17.60
2023-02-02T19:25:56.303Z,10.57
2023-02-02T19:28:31.038Z,9.30
2023-02-02T19:31:01.588Z,11.47
2023-02-02T19:33:49.982Z,7.50
2023-02-02T19:36:24.479Z,8.57
2023-02-02T19:39:05.048Z,12.77
2023-02-02T19:41:32.397Z,8.23
2023-02-02T19:44:06.172Z,9.60
2023-02-02T19:46:43.671Z,9.90
2023-02-02T19:49:32.197Z,7.07
2023-02-02T19:52:00.216Z,9.07
2023-02-02T19:54:28.451Z,7.47
2023-02-02T19:57:20.708Z,7.50
2023-02-02T19:59:49.898Z,24.23
2023-02-02T20:02:59.652Z,8.07
2023-02-02T20:05:35.069Z,11.60
2023-02-02T20:08:09.046Z,5.70
2023-02-02T20:10:39.227Z,16.83
2023-02-02T20:13:16.002Z,9.47
2023-02-02T20:15:43.347Z,8.68
2023-02-02T20:18:28.038Z,9.07
2023-02-02T20:20:56.330Z,17.70
2023-02-02T20:23:31.420Z,9.83
2023-02-02T20:26:02.160Z,10.40
2023-02-02T20:28:44.863Z,9.90
2023-02-02T20:31:15.403Z,12.57
2023-02-02T20:33:45.115Z,6.70
2023-02-02T20:36:37.633Z,10.17
2023-02-02T20:39:29.845Z,18.27
2023-02-02T20:41:57.326Z,7.23
2023-02-02T20:44:25.951Z,7.10
2023-02-02T20:46:54.604Z,8.15
2023-02-02T20:49:25.504Z,9.13
2023-02-02T20:51:56.608Z,8.10
2023-02-02T20:54:24.661Z,12.93
2023-02-02T20:56:52.516Z,14.40
2023-02-02T20:59:20.294Z,8.73
2023-02-02T21:01:49.639Z,9.82
2023-02-02T21:04:17.966Z,8.30
2023-02-02T21:06:44.795Z,8.80
2023-02-02T21:09:11.665Z,8.60
2023-02-02T21:11:38.908Z,8.53
2023-02-02T21:14:06.162Z,8.30
2023-02-02T21:16:33.360Z,8.05
2023-02-02T21:19:00.244Z,12.07
2023-02-02T21:21:27.227Z,12.00
2023-02-02T21:23:54.153Z,7.87
2023-02-02T21:26:26.549Z,12.20
2023-02-02T21:28:53.459Z,11.93
2023-02-02T21:31:20.456Z,15.98
2023-02-02T21:33:47.936Z,10.10
2023-02-02T21:36:46.871Z,12.90
2023-02-02T21:39:46.488Z,14.93
2023-02-02T21:42:19.900Z,7.90
2023-02-02T21:44:57.183Z,9.20
2023-02-02T21:47:32.349Z,10.37
2023-02-02T21:50:11.739Z,11.60
2023-02-02T21:52:38.399Z,10.27
2023-02-02T21:55:36.954Z,14.53
2023-02-02T21:58:34.064Z,7.33
2023-02-02T22:01:21.691Z,9.03
2023-02-02T22:03:49.924Z,8.37
2023-02-02T22:06:16.682Z,13.63
2023-02-02T22:08:43.450Z,10.32
2023-02-02T22:11:29.580Z,8.33
2023-02-02T22:14:38.336Z,13.70
2023-02-02T22:17:25.426Z,7.67
2023-02-02T22:20:00.593Z,7.90
2023-02-02T22:22:32.660Z,8.07
2023-02-02T22:25:22.933Z,13.07
2023-02-02T22:28:02.153Z,15.43
2023-02-02T22:30:36.131Z,13.20
2023-02-02T22:33:03.430Z,11.10
2023-02-02T22:35:30.182Z,10.77
2023-02-02T22:37:56.926Z,13.90
2023-02-02T22:40:23.997Z,12.38
2023-02-02T22:42:53.479Z,9.23
2023-02-02T22:45:20.331Z,11.37
2023-02-02T22:47:47.793Z,10.80
2023-02-02T22:50:16.140Z,7.63
2023-02-02T22:52:43.443Z,14.07
2023-02-02T22:55:12.338Z,10.18
2023-02-02T22:57:39.591Z,12.80
2023-02-02T23:00:18.686Z,8.17
2023-02-02T23:02:45.694Z,6.77
2023-02-02T23:05:14.560Z,10.15
2023-02-02T23:07:44.103Z,6.37
2023-02-02T23:10:19.072Z,8.23
2023-02-02T23:12:46.542Z,14.13
2023-02-02T23:15:14.203Z,6.53
2023-02-02T23:17:41.273Z,8.90
2023-02-02T23:20:10.902Z,14.13
2023-02-02T23:22:37.786Z,10.30
2023-02-02T23:25:05.193Z,7.43
2023-02-02T23:27:32.017Z,6.40
2023-02-02T23:29:58.743Z,8.20
2023-02-02T23:32:25.568Z,8.97
2023-02-02T23:34:52.372Z,10.57
2023-02-02T23:37:19.144Z,13.68
2023-02-02T23:39:45.824Z,6.43
2023-02-02T23:42:12.577Z,10.93
2023-02-02T23:44:39.325Z,6.27
2023-02-02T23:47:06.436Z,9.93
2023-02-02T23:49:33.577Z,11.53
2023-02-02T23:52:00.676Z,7.77
2023-02-02T23:54:28.405Z,7.80
2023-02-02T23:56:56.205Z,10.03
2023-02-02T23:59:23.005Z,10.20
